createdAt,value
2018-03-16T00:00:56.866Z,99.77
2018-03-16T00:01:56.806Z,99.48
2018-03-16T00:02:56.784Z,99.86
2018-03-16T00:03:56.770Z,99.86
2018-03-16T00:04:56.753Z,99.48
2018-03-16T00:05:56.746Z,99.77
2018-03-16T00:06:56.731Z,99.67
2018-03-16T00:07:56.730Z,99.77
2018-03-16T00:08:56.710Z,99.86
2018-03-16T00:09:56.685Z,99.48
2018-03-16T00:10:56.677Z,99.67
2018-03-16T00:11:56.661Z,99.29
2018-03-16T00:12:56.646Z,99.86
2018-03-16T00:13:56.637Z,99.77
2018-03-16T00:14:56.621Z,99.29
2018-03-16T00:15:56.611Z,99.29
2018-03-16T00:16:56.597Z,99.48
2018-03-16T00:17:56.584Z,99.1
2018-03-16T00:18:56.322Z,99.29
2018-03-16T00:19:56.553Z,99.77
2018-03-16T00:20:56.540Z,99.77
2018-03-16T00:21:56.273Z,99.67
2018-03-16T00:22:56.517Z,99.77
2018-03-16T00:23:56.504Z,99.67
2018-03-16T00:24:56.485Z,99.58
2018-03-16T00:25:56.475Z,99.77
2018-03-16T00:26:56.458Z,99.67
2018-03-16T00:27:56.445Z,99.77
2018-03-16T00:28:56.430Z,99.77
2018-03-16T00:29:56.423Z,99.86
2018-03-16T00:30:56.406Z,99.48
2018-03-16T00:31:56.396Z,99.39
2018-03-16T00:32:56.378Z,99.48
2018-03-16T00:33:56.109Z,99.39
2018-03-16T00:34:56.362Z,99.39
2018-03-16T00:35:56.337Z,98.91
2018-03-16T00:36:56.324Z,99.01
2018-03-16T00:37:56.311Z,99.39
2018-03-16T00:38:56.303Z,98.91
2018-03-16T00:39:56.293Z,98.91
2018-03-16T00:40:56.273Z,99.1
2018-03-16T00:41:56.258Z,98.82
2018-03-16T00:42:56.249Z,99.1
2018-03-16T00:43:56.228Z,98.63
2018-03-16T00:44:56.220Z,98.72
2018-03-16T00:45:56.205Z,98.82
2018-03-16T00:46:56.190Z,99.1
2018-03-16T00:47:56.178Z,99.1
2018-03-16T00:48:56.177Z,98.63
2018-03-16T00:49:56.150Z,98.35
2018-03-16T00:50:56.137Z,98.63
2018-03-16T00:51:56.141Z,98.72
2018-03-16T00:52:56.106Z,98.25
2018-03-16T00:53:56.099Z,98.35
2018-03-16T00:54:56.091Z,99.1
2018-03-16T00:55:56.084Z,99.1
2018-03-16T00:56:56.061Z,99.01
2018-03-16T00:57:56.043Z,98.91
2018-03-16T00:58:56.030Z,99.01
2018-03-16T00:59:56.019Z,98.91
2018-03-16T01:00:56.008Z,98.72
2018-03-16T01:01:55.995Z,98.54
2018-03-16T01:02:55.973Z,98.82
2018-03-16T01:03:55.703Z,98.72
2018-03-16T01:04:55.690Z,98.63
2018-03-16T01:05:55.936Z,98.91
2018-03-16T01:06:55.917Z,98.63
2018-03-16T01:07:55.922Z,98.54
2018-03-16T01:08:55.895Z,98.63
2018-03-16T01:09:55.881Z,98.35
2018-03-16T01:10:55.876Z,98.54
2018-03-16T01:11:55.847Z,98.54
2018-03-16T01:12:55.839Z,98.72
2018-03-16T01:13:55.822Z,98.35
2018-03-16T01:14:55.552Z,98.44
2018-03-16T01:15:55.794Z,98.35
2018-03-16T01:16:55.783Z,98.63
2018-03-16T01:17:55.766Z,97.97
2018-03-16T01:18:55.753Z,98.16
2018-03-16T01:19:55.743Z,98.54
2018-03-16T01:20:55.727Z,98.54
2018-03-16T01:21:55.714Z,98.3
2018-03-16T01:22:55.702Z,98.49
2018-03-16T01:23:55.684Z,98.39
2018-03-16T01:24:55.671Z,98.96
2018-03-16T01:25:55.668Z,98.58
2018-03-16T01:26:55.648Z,98.58
2018-03-16T01:27:55.377Z,98.72
2018-03-16T01:28:55.617Z,98.49
2018-03-16T01:29:55.614Z,98.77
2018-03-16T01:30:55.595Z,98.58
2018-03-16T01:31:55.575Z,98.68
2018-03-16T01:32:55.309Z,98.68
2018-03-16T01:33:55.550Z,98.39
2018-03-16T01:34:55.281Z,98.86
2018-03-16T01:35:55.266Z,98.82
2018-03-16T01:36:55.510Z,98.58
2018-03-16T01:37:55.240Z,98.58
2018-03-16T01:38:55.225Z,98.72
2018-03-16T01:39:55.211Z,98.35
2018-03-16T01:40:55.217Z,98.49
2018-03-16T01:41:55.184Z,98.54
2018-03-16T01:42:55.458Z,97.97
2018-03-16T01:43:55.157Z,98.35
2018-03-16T01:44:55.144Z,98.06
2018-03-16T01:45:55.132Z,98.44
2018-03-16T01:46:55.117Z,98.25
2018-03-16T01:47:55.102Z,98.3
2018-03-16T01:48:55.343Z,97.97
2018-03-16T01:49:55.078Z,98.06
2018-03-16T01:50:55.061Z,98.3
2018-03-16T01:51:55.302Z,98.35
2018-03-16T01:52:55.296Z,97.97
2018-03-16T01:53:55.274Z,98.16
2018-03-16T01:54:55.264Z,98.2
2018-03-16T01:55:55.250Z,98.11
2018-03-16T01:56:55.242Z,98.3
2018-03-16T01:57:55.226Z,98.3
2018-03-16T01:58:55.209Z,97.92
2018-03-16T01:59:55.208Z,98.25
2018-03-16T02:00:55.178Z,97.73
2018-03-16T02:01:55.168Z,97.73
2018-03-16T02:02:55.155Z,97.92
2018-03-16T02:03:55.139Z,98.11
2018-03-16T02:04:55.126Z,97.92
2018-03-16T02:05:55.112Z,98.2
2018-03-16T02:06:55.099Z,97.73
2018-03-16T02:07:55.085Z,98.11
2018-03-16T02:08:55.072Z,97.73
2018-03-16T02:09:55.061Z,97.73
2018-03-16T02:10:55.042Z,97.73
2018-03-16T02:11:55.031Z,97.54
2018-03-16T02:12:55.017Z,98.49
2018-03-16T02:13:55.003Z,98.3
2018-03-16T02:14:54.990Z,98.49
2018-03-16T02:15:54.977Z,98.49
2018-03-16T02:16:54.966Z,98.3
2018-03-16T02:17:54.951Z,98.39
2018-03-16T02:18:54.935Z,98.2
2018-03-16T02:19:54.919Z,98.49
2018-03-16T02:20:54.910Z,98.11
2018-03-16T02:21:54.894Z,98.49
2018-03-16T02:22:54.877Z,98.2
2018-03-16T02:23:54.867Z,98.01
2018-03-16T02:24:54.851Z,98.3
2018-03-16T02:25:54.836Z,98.39
2018-03-16T02:26:54.827Z,98.3
2018-03-16T02:27:54.809Z,98.11
2018-03-16T02:28:54.797Z,98.11
2018-03-16T02:29:54.788Z,98.39
2018-03-16T02:30:54.768Z,98.39
2018-03-16T02:31:54.500Z,98.3
2018-03-16T02:32:54.488Z,98.11
2018-03-16T02:33:54.730Z,98.3
2018-03-16T02:34:54.716Z,98.39
2018-03-16T02:35:54.701Z,98.11
2018-03-16T02:36:54.686Z,98.3
2018-03-16T02:37:54.672Z,98.49
2018-03-16T02:38:54.661Z,98.01
2018-03-16T02:39:54.642Z,98.11
2018-03-16T02:40:54.638Z,97.92
2018-03-16T02:41:54.613Z,98.2
2018-03-16T02:42:54.357Z,98.39
2018-03-16T02:43:54.591Z,97.73
2018-03-16T02:44:54.582Z,97.44
2018-03-16T02:45:54.563Z,97.54
2018-03-16T02:46:54.547Z,97.73
2018-03-16T02:47:54.532Z,97.73
2018-03-16T02:48:54.521Z,97.63
2018-03-16T02:49:54.509Z,97.44
2018-03-16T02:50:54.536Z,97.44
2018-03-16T02:51:54.481Z,97.54
2018-03-16T02:52:54.462Z,97.44
2018-03-16T02:53:54.193Z,97.73
2018-03-16T02:54:54.437Z,97.54
2018-03-16T02:55:54.421Z,97.25
2018-03-16T02:56:54.407Z,96.97
2018-03-16T02:57:54.137Z,96.88
2018-03-16T02:58:54.378Z,97.16
2018-03-16T02:59:54.366Z,97.54
2018-03-16T03:00:54.351Z,97.35
2018-03-16T03:01:54.338Z,97.44
2018-03-16T03:02:54.074Z,97.44
2018-03-16T03:03:54.306Z,96.78
2018-03-16T03:04:54.299Z,96.78
2018-03-16T03:05:54.278Z,96.78
2018-03-16T03:06:54.334Z,96.69
2018-03-16T03:07:54.248Z,96.97
2018-03-16T03:08:54.239Z,96.78
2018-03-16T03:09:53.969Z,97.16
2018-03-16T03:10:53.952Z,96.97
2018-03-16T03:11:54.198Z,97.06
2018-03-16T03:12:54.181Z,96.69
2018-03-16T03:13:53.911Z,96.69
2018-03-16T03:14:54.201Z,96.78
2018-03-16T03:15:54.141Z,97.16
2018-03-16T03:16:54.136Z,97.16
2018-03-16T03:17:54.155Z,97.16
2018-03-16T03:18:54.093Z,97.16
2018-03-16T03:19:54.087Z,97.06
2018-03-16T03:20:54.066Z,97.06
2018-03-16T03:21:54.055Z,96.78
2018-03-16T03:22:54.044Z,97.35
2018-03-16T03:23:54.026Z,97.35
2018-03-16T03:24:54.017Z,97.16
2018-03-16T03:25:53.994Z,96.31
2018-03-16T03:26:53.985Z,96.31
2018-03-16T03:27:53.967Z,95.93
2018-03-16T03:28:53.954Z,96.31
2018-03-16T03:29:53.943Z,96.31
2018-03-16T03:30:53.928Z,96.21
2018-03-16T03:31:53.917Z,96.21
2018-03-16T03:32:53.901Z,96.5
2018-03-16T03:33:53.884Z,95.74
2018-03-16T03:34:53.870Z,96.31
2018-03-16T03:35:53.859Z,96.21
2018-03-16T03:36:53.844Z,96.21
2018-03-16T03:37:53.827Z,96.21
2018-03-16T03:38:53.828Z,96.31
2018-03-16T03:39:53.799Z,96.12
2018-03-16T03:40:53.784Z,96.21
2018-03-16T03:41:53.772Z,96.5
2018-03-16T03:42:53.799Z,96.5
2018-03-16T03:43:53.742Z,96.31
2018-03-16T03:44:53.732Z,96.02
2018-03-16T03:45:53.720Z,96.31
2018-03-16T03:46:53.704Z,96.21
2018-03-16T03:47:53.689Z,96.21
2018-03-16T03:48:53.419Z,97.35
2018-03-16T03:49:53.660Z,96.21
2018-03-16T03:50:53.648Z,96.5
2018-03-16T03:51:53.637Z,96.21
2018-03-16T03:52:53.622Z,96.21
2018-03-16T03:53:53.618Z,96.31
2018-03-16T03:54:53.589Z,96.31
2018-03-16T03:55:53.319Z,96.21
2018-03-16T03:56:53.569Z,95.74
2018-03-16T03:57:53.291Z,95.83
2018-03-16T03:58:53.531Z,95.83
2018-03-16T03:59:53.517Z,95.55
2018-03-16T04:00:53.504Z,95.74
2018-03-16T04:01:53.493Z,95.55
2018-03-16T04:02:53.478Z,96.02
2018-03-16T04:03:53.466Z,95.93
2018-03-16T04:04:53.446Z,96.02
2018-03-16T04:05:53.514Z,96.02
2018-03-16T04:06:53.427Z,95.83
2018-03-16T04:07:53.406Z,95.64
2018-03-16T04:08:53.393Z,96.59
2018-03-16T04:09:53.380Z,96.02
2018-03-16T04:10:53.365Z,96.35
2018-03-16T04:11:53.352Z,97.06
2018-03-16T04:12:53.339Z,97.25
2018-03-16T04:13:53.067Z,96.4
2018-03-16T04:14:53.350Z,96.02
2018-03-16T04:15:53.293Z,96.5
2018-03-16T04:16:53.282Z,96.21
2018-03-16T04:17:53.266Z,96.4
2018-03-16T04:18:53.250Z,96.4
2018-03-16T04:19:53.235Z,95.97
2018-03-16T04:20:53.231Z,97.02
2018-03-16T04:21:53.207Z,96.83
2018-03-16T04:22:53.197Z,97.02
2018-03-16T04:23:53.181Z,96.07
2018-03-16T04:24:52.911Z,97.02
2018-03-16T04:25:53.239Z,96.16
2018-03-16T04:26:52.884Z,96.07
2018-03-16T04:27:53.120Z,95.97
2018-03-16T04:28:53.109Z,96.16
2018-03-16T04:29:53.097Z,97.11
2018-03-16T04:30:53.080Z,97.2
2018-03-16T04:31:53.066Z,95.97
2018-03-16T04:32:53.052Z,96.4
2018-03-16T04:33:53.044Z,96.31
2018-03-16T04:34:53.025Z,95.97
2018-03-16T04:35:53.011Z,95.97
2018-03-16T04:36:52.997Z,95.93
2018-03-16T04:37:52.982Z,96.31
2018-03-16T04:38:52.720Z,96.16
2018-03-16T04:39:52.956Z,96.35
2018-03-16T04:40:52.942Z,96.16
2018-03-16T04:41:52.924Z,96.26
2018-03-16T04:42:52.915Z,96.26
2018-03-16T04:43:52.641Z,96.16
2018-03-16T04:44:52.886Z,96.83
2018-03-16T04:45:52.868Z,96.64
2018-03-16T04:46:52.851Z,95.78
2018-03-16T04:47:52.839Z,95.59
2018-03-16T04:48:52.824Z,95.69
2018-03-16T04:49:52.807Z,95.69
2018-03-16T04:50:52.797Z,95.59
2018-03-16T04:51:52.784Z,96.35
2018-03-16T04:52:52.769Z,96.35
2018-03-16T04:53:52.498Z,96.26
2018-03-16T04:54:52.737Z,95.78
2018-03-16T04:55:52.470Z,96.16
2018-03-16T04:56:52.456Z,95.97
2018-03-16T04:57:52.699Z,95.97
2018-03-16T04:58:52.425Z,95.97
2018-03-16T04:59:52.674Z,96.26
2018-03-16T05:00:52.399Z,96.35
2018-03-16T05:01:52.645Z,96.45
2018-03-16T05:02:52.369Z,95.97
2018-03-16T05:03:52.357Z,96.26
2018-03-16T05:04:52.342Z,96.16
2018-03-16T05:05:52.590Z,96.35
2018-03-16T05:06:52.568Z,96.16
2018-03-16T05:07:52.296Z,97.02
2018-03-16T05:08:52.289Z,96.73
2018-03-16T05:09:52.269Z,96.64
2018-03-16T05:10:52.514Z,96.92
2018-03-16T05:11:52.498Z,96.64
2018-03-16T05:12:52.227Z,96.73
2018-03-16T05:13:52.212Z,96.64
2018-03-16T05:14:52.197Z,96.83
2018-03-16T05:15:52.181Z,96.64
2018-03-16T05:16:52.432Z,96.64
2018-03-16T05:17:52.415Z,96.92
2018-03-16T05:18:52.400Z,97.2
2018-03-16T05:19:52.383Z,96.73
2018-03-16T05:20:52.379Z,96.83
2018-03-16T05:21:52.095Z,97.3
2018-03-16T05:22:52.344Z,97.02
2018-03-16T05:23:52.321Z,96.73
2018-03-16T05:24:52.055Z,96.64
2018-03-16T05:25:52.298Z,97.11
2018-03-16T05:26:52.023Z,96.92
2018-03-16T05:27:52.263Z,96.73
2018-03-16T05:28:52.249Z,97.02
2018-03-16T05:29:52.240Z,97.02
2018-03-16T05:30:52.221Z,96.83
2018-03-16T05:31:52.205Z,97.02
2018-03-16T05:32:52.191Z,96.92
2018-03-16T05:33:52.176Z,97.11
2018-03-16T05:34:52.162Z,97.02
2018-03-16T05:35:52.146Z,97.02
2018-03-16T05:36:51.887Z,96.83
2018-03-16T05:37:52.117Z,96.64
2018-03-16T05:38:52.102Z,96.92
2018-03-16T05:39:52.092Z,96.07
2018-03-16T05:40:52.080Z,97.02
2018-03-16T05:41:52.060Z,96.64
2018-03-16T05:42:52.057Z,96.64
2018-03-16T05:43:52.035Z,96.54
2018-03-16T05:44:52.016Z,96.92
2018-03-16T05:45:52.004Z,96.07
2018-03-16T05:46:51.992Z,97.2
2018-03-16T05:47:51.972Z,96.26
2018-03-16T05:48:51.956Z,96.73
2018-03-16T05:49:51.948Z,96.16
2018-03-16T05:50:51.934Z,97.02
2018-03-16T05:51:51.917Z,96.73
2018-03-16T05:52:51.896Z,96.45
2018-03-16T05:53:51.887Z,96.54
2018-03-16T05:54:51.925Z,96.92
2018-03-16T05:55:51.860Z,96.92
2018-03-16T05:56:51.842Z,96.92
2018-03-16T05:57:51.825Z,97.58
2018-03-16T05:58:51.817Z,97.87
2018-03-16T05:59:51.799Z,98.44
2018-03-16T06:00:51.930Z,98.63
2018-03-16T06:01:51.772Z,99.48
2018-03-16T06:02:51.499Z,99.38
2018-03-16T06:03:51.740Z,99.99
2018-03-16T06:04:51.732Z,99.1
2018-03-16T06:05:51.711Z,99.15
2018-03-16T06:06:51.707Z,98.77
2018-03-16T06:07:51.683Z,98.53
2018-03-16T06:08:51.664Z,98.63
2018-03-16T06:09:51.651Z,97.96
2018-03-16T06:10:51.637Z,98.01
2018-03-16T06:11:51.624Z,97.49
2018-03-16T06:12:51.612Z,98.2
2018-03-16T06:13:51.595Z,97.82
2018-03-16T06:14:51.577Z,97.82
2018-03-16T06:15:51.568Z,97.91
2018-03-16T06:16:51.553Z,98.39
2018-03-16T06:17:51.534Z,98.2
2018-03-16T06:18:51.271Z,98.2
2018-03-16T06:19:51.505Z,98.01
2018-03-16T06:20:51.487Z,97.91
2018-03-16T06:21:51.476Z,98.01
2018-03-16T06:22:51.204Z,98.2
2018-03-16T06:23:51.449Z,98.48
2018-03-16T06:24:51.177Z,98.2
2018-03-16T06:25:51.172Z,98.2
2018-03-16T06:26:51.149Z,98.58
2018-03-16T06:27:51.132Z,98.39
2018-03-16T06:28:51.371Z,98.67
2018-03-16T06:29:51.358Z,98.39
2018-03-16T06:30:51.339Z,97.91
2018-03-16T06:31:51.324Z,97.91
2018-03-16T06:32:51.314Z,98.01
2018-03-16T06:33:51.092Z,98.1
2018-03-16T06:34:51.286Z,97.82
2018-03-16T06:35:51.270Z,98.01
2018-03-16T06:36:51.254Z,97.44
2018-03-16T06:37:51.244Z,96.78
2018-03-16T06:38:51.223Z,96.69
2018-03-16T06:39:51.209Z,96.07
2018-03-16T06:40:51.195Z,96.26
2018-03-16T06:41:51.182Z,95.64
2018-03-16T06:42:51.416Z,95.74
2018-03-16T06:43:51.150Z,95.45
2018-03-16T06:44:51.641Z,95.55
2018-03-16T06:45:51.121Z,95.36
2018-03-16T06:46:51.105Z,95.55
2018-03-16T06:47:51.091Z,95.64
2018-03-16T06:48:51.076Z,95.64
2018-03-16T06:49:51.066Z,95.45
2018-03-16T06:50:50.793Z,95.74
2018-03-16T06:51:50.783Z,95.64
2018-03-16T06:52:51.022Z,95.07
2018-03-16T06:53:51.002Z,95.17
2018-03-16T06:54:50.996Z,94.98
2018-03-16T06:55:50.979Z,94.79
2018-03-16T06:56:50.971Z,94.98
2018-03-16T06:57:50.946Z,95.17
2018-03-16T06:58:50.934Z,95.17
2018-03-16T06:59:50.917Z,95.17
2018-03-16T07:00:50.902Z,95.12
2018-03-16T07:01:50.897Z,95.21
2018-03-16T07:02:50.871Z,93.89
2018-03-16T07:03:50.858Z,93.99
2018-03-16T07:04:50.846Z,93.8
2018-03-16T07:05:50.830Z,93.8
2018-03-16T07:06:50.819Z,94.23
2018-03-16T07:07:50.543Z,94.13
2018-03-16T07:08:50.784Z,94.23
2018-03-16T07:09:50.781Z,93.75
2018-03-16T07:10:50.760Z,94.04
2018-03-16T07:11:50.738Z,93.75
2018-03-16T07:12:50.727Z,94.04
2018-03-16T07:13:50.959Z,93.66
2018-03-16T07:14:50.693Z,93.66
2018-03-16T07:15:50.687Z,93.75
2018-03-16T07:16:50.410Z,93.66
2018-03-16T07:17:50.650Z,93.66
2018-03-16T07:18:50.636Z,93.37
2018-03-16T07:19:50.622Z,93.66
2018-03-16T07:20:50.607Z,94.13
2018-03-16T07:21:50.594Z,93.85
2018-03-16T07:22:50.579Z,94.04
2018-03-16T07:23:50.563Z,93.75
2018-03-16T07:24:50.550Z,93.56
2018-03-16T07:25:50.538Z,93.56
2018-03-16T07:26:50.520Z,93.47
2018-03-16T07:27:50.502Z,93.56
2018-03-16T07:28:50.489Z,93.75
2018-03-16T07:29:50.529Z,93.8
2018-03-16T07:30:50.464Z,92.85
2018-03-16T07:31:50.443Z,93.04
2018-03-16T07:32:50.595Z,93.18
2018-03-16T07:33:50.418Z,94.04
2018-03-16T07:34:50.401Z,93.94
2018-03-16T07:35:50.385Z,93.94
2018-03-16T07:36:50.121Z,93.28
2018-03-16T07:37:50.105Z,93.85
2018-03-16T07:38:50.344Z,93.56
2018-03-16T07:39:50.328Z,93.8
2018-03-16T07:40:50.342Z,94.08
2018-03-16T07:41:50.299Z,93.32
2018-03-16T07:42:50.388Z,93.23
2018-03-16T07:43:50.276Z,92.76
2018-03-16T07:44:50.261Z,92.57
2018-03-16T07:45:50.242Z,92.66
2018-03-16T07:46:50.229Z,93.04
2018-03-16T07:47:50.218Z,92.76
2018-03-16T07:48:50.208Z,92.71
2018-03-16T07:49:50.181Z,92.57
2018-03-16T07:50:50.168Z,93.04
2018-03-16T07:51:50.158Z,93.23
2018-03-16T07:52:50.145Z,93.13
2018-03-16T07:53:50.130Z,93.13
2018-03-16T07:54:50.113Z,92.85
2018-03-16T07:55:50.127Z,93.13
2018-03-16T07:56:49.826Z,93.23
2018-03-16T07:57:50.069Z,92.99
2018-03-16T07:58:50.052Z,93.09
2018-03-16T07:59:50.054Z,93.18
2018-03-16T08:00:50.032Z,93.09
2018-03-16T08:01:50.016Z,93.18
2018-03-16T08:02:50.001Z,93.75
2018-03-16T08:03:49.984Z,93.75
2018-03-16T08:04:49.963Z,93.94
2018-03-16T08:05:49.699Z,93.85
2018-03-16T08:06:49.940Z,93.66
2018-03-16T08:07:49.920Z,93.66
2018-03-16T08:08:50.001Z,94.89
2018-03-16T08:09:49.891Z,94.89
2018-03-16T08:10:49.882Z,95.55
2018-03-16T08:11:49.907Z,94.89
2018-03-16T08:12:49.846Z,95.74
2018-03-16T08:13:49.833Z,95.45
2018-03-16T08:14:49.825Z,95.55
2018-03-16T08:15:49.818Z,95.64
2018-03-16T08:16:49.790Z,95.64
2018-03-16T08:17:49.777Z,94.98
2018-03-16T08:18:49.760Z,95.45
2018-03-16T08:19:49.746Z,96.02
2018-03-16T08:20:49.735Z,95.55
2018-03-16T08:21:49.723Z,95.36
2018-03-16T08:22:49.703Z,95.45
2018-03-16T08:23:49.688Z,95.55
2018-03-16T08:24:49.672Z,95.64
2018-03-16T08:25:49.661Z,95.17
2018-03-16T08:26:49.643Z,95.36
2018-03-16T08:27:49.627Z,94.79
2018-03-16T08:28:49.362Z,94.89
2018-03-16T08:29:49.347Z,95.45
2018-03-16T08:30:49.583Z,95.45
2018-03-16T08:31:49.319Z,95.83
2018-03-16T08:32:49.558Z,96.88
2018-03-16T08:33:49.541Z,95.93
2018-03-16T08:34:49.531Z,95.93
2018-03-16T08:35:49.523Z,95.17
2018-03-16T08:36:49.496Z,94.42
2018-03-16T08:37:49.485Z,93.85
2018-03-16T08:38:49.473Z,94.13
2018-03-16T08:39:49.452Z,94.13
2018-03-16T08:40:49.443Z,94.23
2018-03-16T08:41:49.428Z,94.89
2018-03-16T08:42:49.416Z,94.32
2018-03-16T08:43:49.141Z,94.89
2018-03-16T08:44:49.387Z,94.98
2018-03-16T08:45:49.372Z,94.32
2018-03-16T08:46:49.353Z,94.13
2018-03-16T08:47:49.336Z,93.47
2018-03-16T08:48:49.323Z,93.75
2018-03-16T08:49:49.351Z,93.09
2018-03-16T08:50:49.294Z,93.75
2018-03-16T08:51:49.275Z,93.75
2018-03-16T08:52:49.264Z,94.13
2018-03-16T08:53:48.994Z,93.75
2018-03-16T08:54:49.231Z,94.13
2018-03-16T08:55:49.226Z,93.75
2018-03-16T08:56:49.207Z,94.23
2018-03-16T08:57:49.197Z,94.42
2018-03-16T08:58:49.219Z,93.66
2018-03-16T08:59:49.178Z,93.66
2018-03-16T09:00:49.156Z,93.18
2018-03-16T09:01:49.137Z,93.18
2018-03-16T09:02:49.161Z,93.56
2018-03-16T09:03:49.110Z,94.42
2018-03-16T09:04:49.093Z,94.7
2018-03-16T09:05:49.073Z,94.79
2018-03-16T09:06:49.059Z,94.79
2018-03-16T09:07:48.788Z,94.98
2018-03-16T09:08:48.792Z,94.89
2018-03-16T09:09:49.014Z,95.07
2018-03-16T09:10:49.022Z,94.04
2018-03-16T09:11:48.987Z,94.6
2018-03-16T09:12:48.970Z,95.45
2018-03-16T09:13:48.954Z,95.64
2018-03-16T09:14:48.948Z,95.74
2018-03-16T09:15:48.930Z,95.55
2018-03-16T09:16:48.914Z,96.21
2018-03-16T09:17:48.642Z,95.45
2018-03-16T09:18:49.134Z,94.7
2018-03-16T09:19:48.877Z,94.79
2018-03-16T09:20:48.867Z,94.13
2018-03-16T09:21:48.842Z,94.32
2018-03-16T09:22:48.823Z,94.89
2018-03-16T09:23:48.807Z,94.89
2018-03-16T09:24:48.798Z,94.98
2018-03-16T09:25:48.779Z,95.64
2018-03-16T09:26:48.785Z,96.78
2018-03-16T09:27:48.756Z,95.83
2018-03-16T09:28:48.737Z,95.93
2018-03-16T09:29:48.800Z,94.98
2018-03-16T09:30:48.715Z,93.94
2018-03-16T09:31:48.692Z,93.28
2018-03-16T09:32:48.678Z,92.52
2018-03-16T09:33:48.669Z,93.47
2018-03-16T09:34:48.403Z,94.23
2018-03-16T09:35:48.631Z,94.13
2018-03-16T09:36:48.619Z,94.32
2018-03-16T09:37:48.610Z,93.56
2018-03-16T09:38:48.334Z,93.18
2018-03-16T09:39:48.575Z,93.28
2018-03-16T09:40:48.566Z,93.75
2018-03-16T09:41:48.555Z,93.94
2018-03-16T09:42:48.275Z,93.75
2018-03-16T09:43:48.519Z,93.28
2018-03-16T09:44:48.500Z,93.18
2018-03-16T09:45:48.485Z,93.56
2018-03-16T09:46:48.478Z,93.75
2018-03-16T09:47:48.456Z,92.61
2018-03-16T09:48:48.447Z,92.05
2018-03-16T09:49:48.677Z,92.52
2018-03-16T09:50:48.410Z,92.05
2018-03-16T09:51:48.397Z,93.18
2018-03-16T09:52:48.402Z,93.09
2018-03-16T09:53:48.376Z,92.9
2018-03-16T09:54:48.353Z,93.37
2018-03-16T09:55:48.339Z,92.8
2018-03-16T09:56:48.333Z,92.61
2018-03-16T09:57:48.307Z,92.14
2018-03-16T09:58:48.296Z,92.52
2018-03-16T09:59:48.025Z,92.43
2018-03-16T10:00:48.285Z,91.48
2018-03-16T10:01:48.261Z,91.29
2018-03-16T10:02:48.249Z,91.86
2018-03-16T10:03:48.217Z,92.43
2018-03-16T10:04:47.952Z,92.05
2018-03-16T10:05:48.202Z,92.43
2018-03-16T10:06:48.191Z,93.56
2018-03-16T10:07:48.173Z,93.75
2018-03-16T10:08:48.144Z,93.75
2018-03-16T10:09:48.131Z,94.13
2018-03-16T10:10:48.120Z,95.26
2018-03-16T10:11:48.104Z,94.98
2018-03-16T10:12:48.090Z,94.32
2018-03-16T10:13:48.080Z,93.75
2018-03-16T10:14:48.055Z,93.75
2018-03-16T10:15:47.787Z,95.17
2018-03-16T10:16:47.783Z,95.45
2018-03-16T10:17:48.149Z,95.93
2018-03-16T10:18:47.998Z,96.69
2018-03-16T10:19:47.982Z,96.5
2018-03-16T10:20:48.220Z,97.16
2018-03-16T10:21:47.973Z,96.69
2018-03-16T10:22:47.944Z,94.98
2018-03-16T10:23:47.926Z,95.26
2018-03-16T10:24:47.918Z,96.59
2018-03-16T10:25:47.914Z,97.06
2018-03-16T10:26:47.885Z,96.78
2018-03-16T10:27:47.870Z,95.93
2018-03-16T10:28:47.870Z,95.93
2018-03-16T10:29:47.582Z,96.59
2018-03-16T10:30:47.829Z,97.44
2018-03-16T10:31:47.812Z,97.06
2018-03-16T10:32:47.793Z,97.72
2018-03-16T10:33:47.776Z,98.58
2018-03-16T10:34:47.760Z,99.15
2018-03-16T10:35:47.748Z,98.48
2018-03-16T10:36:47.489Z,99.99
2018-03-16T10:37:47.730Z,99.99
2018-03-16T10:38:47.704Z,99.99
2018-03-16T10:39:47.687Z,99.99
2018-03-16T10:40:47.676Z,99.99
2018-03-16T10:41:47.656Z,99.99
2018-03-16T10:42:47.677Z,99.99
2018-03-16T10:43:47.378Z,99.99
2018-03-16T10:44:47.618Z,99.99
2018-03-16T10:45:47.912Z,99.99
2018-03-16T10:46:47.591Z,99.99
2018-03-16T10:47:47.566Z,99.99
2018-03-16T10:48:47.570Z,99.99
2018-03-16T10:49:47.540Z,99.99
2018-03-16T10:50:47.278Z,99.99
2018-03-16T10:51:47.512Z,99.99
2018-03-16T10:52:47.490Z,99.99
2018-03-16T10:53:47.222Z,99.99
2018-03-16T10:54:47.470Z,99.99
2018-03-16T10:55:47.200Z,99.99
2018-03-16T10:56:47.433Z,99.99
2018-03-16T10:57:47.418Z,99.99
2018-03-16T10:58:47.399Z,99.99
2018-03-16T10:59:47.384Z,99.99
2018-03-16T11:00:47.371Z,99.99
2018-03-16T11:01:47.409Z,99.99
2018-03-16T11:02:47.348Z,99.99
2018-03-16T11:03:47.321Z,99.99
2018-03-16T11:04:47.315Z,99.99
2018-03-16T11:05:47.056Z,99.99
2018-03-16T11:06:47.025Z,99.99
2018-03-16T11:07:47.266Z,99.99
2018-03-16T11:08:46.994Z,99.99
2018-03-16T11:09:47.237Z,99.99
2018-03-16T11:10:46.963Z,99.99
2018-03-16T11:11:47.206Z,99.99
2018-03-16T11:12:47.218Z,99.99
2018-03-16T11:13:47.375Z,99.99
2018-03-16T11:14:47.160Z,99.99
2018-03-16T11:15:47.164Z,99.28
2018-03-16T11:16:47.133Z,98.9
2018-03-16T11:17:47.113Z,99.66
2018-03-16T11:18:47.097Z,99.99
2018-03-16T11:19:47.081Z,99.99
2018-03-16T11:20:47.065Z,99.99
2018-03-16T11:21:47.052Z,99.99
2018-03-16T11:22:47.034Z,99.99
2018-03-16T11:23:47.025Z,99.99
2018-03-16T11:24:47.005Z,99.99
2018-03-16T11:25:47.003Z,99.47
2018-03-16T11:26:46.729Z,99.57
2018-03-16T11:27:46.708Z,99.99
2018-03-16T11:28:46.952Z,99.99
2018-03-16T11:29:46.929Z,99.99
2018-03-16T11:30:46.916Z,99.19
2018-03-16T11:31:46.910Z,99.95
2018-03-16T11:32:46.887Z,99.99
2018-03-16T11:33:46.875Z,99.38
2018-03-16T11:34:46.856Z,99.76
2018-03-16T11:35:46.845Z,99.05
2018-03-16T11:36:46.840Z,98.48
2018-03-16T11:37:46.555Z,98.43
2018-03-16T11:38:46.792Z,98.62
2018-03-16T11:39:46.781Z,99.47
2018-03-16T11:40:46.775Z,99.95
2018-03-16T11:41:46.774Z,99.99
2018-03-16T11:42:46.737Z,99.99
2018-03-16T11:43:46.730Z,99.99
2018-03-16T11:44:46.712Z,99.99
2018-03-16T11:45:46.692Z,99.99
2018-03-16T11:46:46.676Z,99.99
2018-03-16T11:47:46.692Z,99.99
2018-03-16T11:48:46.662Z,99.99
2018-03-16T11:49:46.649Z,99.99
2018-03-16T11:50:46.619Z,99.99
2018-03-16T11:51:46.601Z,99.99
2018-03-16T11:52:46.588Z,99.9
2018-03-16T11:53:46.583Z,99.99
2018-03-16T11:54:46.555Z,99.99
2018-03-16T11:55:46.551Z,99.99
2018-03-16T11:56:46.526Z,99.99
2018-03-16T11:57:46.508Z,99.99
2018-03-16T11:58:46.528Z,99.8
2018-03-16T11:59:46.491Z,99.99
2018-03-16T12:00:46.463Z,99.9
2018-03-16T12:01:46.450Z,99.33
2018-03-16T12:02:46.437Z,99.62
2018-03-16T12:03:46.164Z,98.29
2018-03-16T12:04:46.410Z,99.99
2018-03-16T12:05:46.396Z,99.9
2018-03-16T12:06:46.393Z,99.99
2018-03-16T12:07:46.363Z,99.99
2018-03-16T12:08:46.359Z,99.99
2018-03-16T12:09:46.337Z,99.99
2018-03-16T12:10:46.450Z,99.99
2018-03-16T12:11:46.314Z,99.99
2018-03-16T12:12:46.302Z,99.99
2018-03-16T12:13:46.301Z,99.99
2018-03-16T12:14:46.257Z,98.58
2018-03-16T12:15:46.253Z,98.77
2018-03-16T12:16:46.231Z,99.99
2018-03-16T12:17:46.217Z,99.99
2018-03-16T12:18:46.200Z,99.99
2018-03-16T12:19:46.180Z,99.8
2018-03-16T12:20:46.170Z,99.99
2018-03-16T12:21:46.155Z,99.99
2018-03-16T12:22:46.136Z,99.52
2018-03-16T12:23:45.867Z,99.9
2018-03-16T12:24:46.106Z,99.99
2018-03-16T12:25:46.344Z,99.99
2018-03-16T12:26:46.078Z,99.99
2018-03-16T12:27:46.063Z,99.99
2018-03-16T12:28:52.923Z,99.99
2018-03-16T12:29:46.031Z,99.99
2018-03-16T12:30:46.017Z,99.05
2018-03-16T12:31:45.999Z,98.2
2018-03-16T12:32:45.994Z,99.15
2018-03-16T12:33:45.989Z,98.77
2018-03-16T12:34:45.957Z,98.58
2018-03-16T12:35:45.941Z,98.67
2018-03-16T12:36:46.135Z,99.99
2018-03-16T12:37:45.922Z,99.15
2018-03-16T12:38:45.649Z,99.43
2018-03-16T12:39:45.882Z,99.52
2018-03-16T12:40:45.867Z,99.15
2018-03-16T12:41:45.852Z,99.52
2018-03-16T12:42:45.839Z,99.99
2018-03-16T12:43:45.849Z,99.99
2018-03-16T12:44:45.812Z,99.24
2018-03-16T12:45:45.540Z,98.29
2018-03-16T12:46:45.783Z,98.77
2018-03-16T12:47:45.767Z,99.99
2018-03-16T12:48:45.749Z,99.99
2018-03-16T12:49:45.490Z,99.99
2018-03-16T12:50:45.719Z,99.24
2018-03-16T12:51:45.711Z,99.43
2018-03-16T12:52:45.718Z,98.48
2018-03-16T12:53:45.679Z,98.77
2018-03-16T12:54:45.663Z,99.24